createdAt,value
2018-07-02T00:00:41.904Z,101164.34
2018-07-02T00:03:11.761Z,101160.89
2018-07-02T00:05:58.413Z,101163.34
2018-07-02T00:08:28.296Z,101159.59
2018-07-02T00:10:58.301Z,101161.81
2018-07-02T00:13:28.180Z,101165.33
2018-07-02T00:15:58.043Z,101164.00
2018-07-02T00:18:27.886Z,101165.80
2018-07-02T00:20:57.665Z,101165.87
2018-07-02T00:23:27.456Z,101160.68
2018-07-02T00:25:57.298Z,101158.55
2018-07-02T00:28:27.132Z,101155.40
2018-07-02T00:30:57.010Z,101157.62
2018-07-02T00:33:26.931Z,101156.38
2018-07-02T00:35:56.802Z,101152.31
2018-07-02T00:38:26.592Z,101152.27
2018-07-02T00:40:56.400Z,101153.53
2018-07-02T00:43:26.185Z,101156.14
2018-07-02T00:45:55.931Z,101145.11
2018-07-02T00:48:25.731Z,101149.52
2018-07-02T00:50:55.468Z,101147.86
2018-07-02T00:53:25.351Z,101152.73
2018-07-02T00:55:55.170Z,101151.69
2018-07-02T00:58:24.993Z,101152.59
2018-07-02T01:00:54.796Z,101155.27
2018-07-02T01:03:24.712Z,101153.13
2018-07-02T01:05:54.598Z,101157.47
2018-07-02T01:08:24.499Z,101154.80
2018-07-02T01:10:54.395Z,101155.26
2018-07-02T01:13:24.286Z,101153.45
2018-07-02T01:15:54.180Z,101149.09
2018-07-02T01:18:24.018Z,101150.92
2018-07-02T01:20:53.894Z,101148.73
2018-07-02T01:23:23.677Z,101146.53
2018-07-02T01:25:53.456Z,101143.06
2018-07-02T01:28:23.307Z,101143.50
2018-07-02T01:30:53.079Z,101143.09
2018-07-02T01:33:22.918Z,101143.06
2018-07-02T01:35:52.743Z,101145.28
2018-07-02T01:38:22.645Z,101145.36
2018-07-02T01:40:52.435Z,101139.27
2018-07-02T01:43:22.361Z,101128.75
2018-07-02T01:45:52.182Z,101137.20
2018-07-02T01:48:22.074Z,101135.95
2018-07-02T01:50:51.502Z,101133.70
2018-07-02T01:53:21.341Z,101136.83
2018-07-02T01:55:51.319Z,101136.92
2018-07-02T01:58:21.232Z,101145.81
2018-07-02T02:00:51.196Z,101150.33
2018-07-02T02:03:20.987Z,101151.20
2018-07-02T02:05:50.829Z,101149.39
2018-07-02T02:08:20.272Z,101154.72
2018-07-02T02:10:51.610Z,101160.45
2018-07-02T02:13:21.973Z,101170.63
2018-07-02T02:15:52.811Z,101166.33
2018-07-02T02:18:23.363Z,101162.42
2018-07-02T02:20:54.338Z,101162.03
2018-07-02T02:23:25.300Z,101162.08
2018-07-02T02:25:55.349Z,101159.91
2018-07-02T02:28:26.429Z,101156.88
2018-07-02T02:30:56.491Z,101153.83
2018-07-02T02:33:28.106Z,101158.70
2018-07-02T02:35:59.391Z,101156.94
2018-07-02T02:38:30.695Z,101155.17
2018-07-02T02:41:00.753Z,101157.84
2018-07-02T02:43:31.663Z,101153.47
2018-07-02T02:46:03.007Z,101159.63
2018-07-02T02:48:36.200Z,101159.16
2018-07-02T02:51:06.131Z,101160.48
2018-07-02T02:53:38.198Z,101167.52
2018-07-02T02:56:09.068Z,101170.64
2018-07-02T02:58:39.757Z,101174.14
2018-07-02T03:01:11.146Z,101173.71
2018-07-02T03:03:41.257Z,101173.25
2018-07-02T03:06:12.111Z,101176.73
2018-07-02T03:08:42.842Z,101164.44
2018-07-02T03:11:13.494Z,101167.92
2018-07-02T03:13:44.422Z,101166.14
2018-07-02T03:16:14.315Z,101169.19
2018-07-02T03:18:46.927Z,101173.14
2018-07-02T03:21:16.818Z,101176.22
2018-07-02T03:23:47.723Z,101168.30
2018-07-02T03:26:18.231Z,101162.63
2018-07-02T03:28:48.809Z,101157.34
2018-07-02T03:31:19.305Z,101161.30
2018-07-02T03:33:50.182Z,101157.31
2018-07-02T03:36:22.811Z,101158.63
2018-07-02T03:38:52.718Z,101153.80
2018-07-02T03:41:24.383Z,101145.80
2018-07-02T03:43:54.434Z,101147.55
2018-07-02T03:46:24.406Z,101146.23
2018-07-02T03:48:55.358Z,101146.64
2018-07-02T03:51:25.308Z,101147.47
2018-07-02T03:53:56.547Z,101146.05
2018-07-02T03:56:26.611Z,101142.03
2018-07-02T03:58:56.491Z,101138.50
2018-07-02T04:01:27.834Z,101130.89
2018-07-02T04:03:57.952Z,101129.95
2018-07-02T04:06:30.466Z,101125.11
2018-07-02T04:09:05.234Z,101126.86
2018-07-02T04:11:35.138Z,101128.12
2018-07-02T04:14:06.453Z,101129.38
2018-07-02T04:16:36.475Z,101121.00
2018-07-02T04:19:12.154Z,101127.14
2018-07-02T04:21:45.670Z,101120.47
2018-07-02T04:24:16.202Z,101124.80
2018-07-02T04:26:46.050Z,101122.08
2018-07-02T04:29:15.942Z,101124.58
2018-07-02T04:31:47.434Z,101113.38
2018-07-02T04:34:17.976Z,101123.81
2018-07-02T04:36:48.021Z,101122.41
2018-07-02T04:39:18.082Z,101127.16
2018-07-02T04:41:48.700Z,101125.08
2018-07-02T04:44:18.818Z,101126.36
2018-07-02T04:46:49.479Z,101139.50
2018-07-02T04:49:19.421Z,101141.42
2018-07-02T04:51:49.342Z,101145.77
2018-07-02T04:54:19.299Z,101158.43
2018-07-02T04:56:49.194Z,101154.84
2018-07-02T04:59:19.754Z,101160.19
2018-07-02T05:01:49.694Z,101156.47
2018-07-02T05:04:19.742Z,101149.06
2018-07-02T05:07:01.623Z,101158.93
2018-07-02T05:09:31.770Z,101150.55
2018-07-02T05:12:01.827Z,101155.74
2018-07-02T05:14:32.406Z,101154.48
2018-07-02T05:17:02.683Z,101155.56
2018-07-02T05:19:32.647Z,101149.63
2018-07-02T05:22:04.054Z,101146.09
2018-07-02T05:24:34.940Z,101150.08
2018-07-02T05:27:05.210Z,101144.55
2018-07-02T05:29:35.042Z,101138.02
2018-07-02T05:32:05.200Z,101146.16
2018-07-02T05:34:35.292Z,101138.91
2018-07-02T05:37:05.244Z,101142.80
2018-07-02T05:39:35.114Z,101134.92
2018-07-02T05:42:05.053Z,101145.16
2018-07-02T05:44:34.925Z,101150.72
2018-07-02T05:47:04.750Z,101155.81
2018-07-02T05:49:34.500Z,101151.41
2018-07-02T05:52:04.570Z,101150.91
2018-07-02T05:54:34.457Z,101157.08
2018-07-02T05:57:04.378Z,101153.30
2018-07-02T05:59:34.169Z,101152.52
2018-07-02T06:02:04.134Z,101157.88
2018-07-02T06:04:34.969Z,101155.81
2018-07-02T06:07:04.788Z,101163.81
2018-07-02T06:09:34.243Z,101167.64
2018-07-02T06:12:04.008Z,101162.34
2018-07-02T06:14:33.906Z,101163.04
2018-07-02T06:17:03.724Z,101162.63
2018-07-02T06:19:33.589Z,101161.85
2018-07-02T06:22:03.409Z,101158.90
2018-07-02T06:24:33.401Z,101161.27
2018-07-02T06:27:03.150Z,101157.67
2018-07-02T06:29:32.959Z,101161.03
2018-07-02T06:32:02.741Z,101162.80
2018-07-02T06:34:32.483Z,101161.20
2018-07-02T06:37:02.408Z,101161.72
2018-07-02T06:39:32.220Z,101160.13
2018-07-02T06:42:02.869Z,101164.66
2018-07-02T06:44:32.641Z,101165.75
2018-07-02T06:47:02.589Z,101161.11
2018-07-02T06:49:33.205Z,101160.09
2018-07-02T06:52:03.009Z,101159.06
2018-07-02T06:54:33.565Z,101156.20
2018-07-02T06:57:03.393Z,101161.91
2018-07-02T06:59:33.233Z,101158.28
2018-07-02T07:02:03.077Z,101164.08
2018-07-02T07:04:32.917Z,101161.86
2018-07-02T07:07:02.908Z,101166.54
2018-07-02T07:09:32.806Z,101174.43
2018-07-02T07:12:02.677Z,101176.22
2018-07-02T07:14:32.615Z,101176.35
2018-07-02T07:17:02.440Z,101170.60
2018-07-02T07:19:32.285Z,101174.31
2018-07-02T07:22:01.785Z,101170.94
2018-07-02T07:24:31.646Z,101175.63
2018-07-02T07:27:01.527Z,101168.73
2018-07-02T07:29:31.387Z,101175.98
2018-07-02T07:32:01.760Z,101170.66
2018-07-02T07:34:31.713Z,101169.55
2018-07-02T07:37:03.893Z,101166.58
2018-07-02T07:39:33.899Z,101160.32
2018-07-02T07:42:03.869Z,101152.80
2018-07-02T07:44:33.872Z,101157.33
2018-07-02T07:47:03.781Z,101164.34
2018-07-02T07:49:33.913Z,101155.13
2018-07-02T07:52:03.749Z,101150.49
2018-07-02T07:54:33.686Z,101145.36
2018-07-02T07:57:03.701Z,101143.11
2018-07-02T07:59:33.725Z,101136.48
2018-07-02T08:02:04.254Z,101137.84
2018-07-02T08:04:34.149Z,101132.12
2018-07-02T08:07:04.291Z,101137.45
2018-07-02T08:09:34.139Z,101131.31
2018-07-02T08:12:04.023Z,101138.33
2018-07-02T08:14:33.905Z,101138.43
2018-07-02T08:17:05.222Z,101133.06
2018-07-02T08:19:35.387Z,101137.77
2018-07-02T08:22:05.245Z,101134.45
2018-07-02T08:24:35.133Z,101126.34
2018-07-02T08:27:05.353Z,101134.35
2018-07-02T08:29:35.241Z,101128.64
2018-07-02T08:32:05.797Z,101128.27
2018-07-02T08:34:35.902Z,101127.32
2018-07-02T08:37:05.761Z,101122.37
2018-07-02T08:39:35.800Z,101124.96
2018-07-02T08:42:06.194Z,101121.34
2018-07-02T08:44:36.089Z,101121.68
2018-07-02T08:47:05.954Z,101112.61
2018-07-02T08:49:36.199Z,101121.41
2018-07-02T08:52:06.175Z,101117.63
2018-07-02T08:54:36.084Z,101113.92
2018-07-02T08:57:05.974Z,101120.63
2018-07-02T08:59:37.095Z,101109.66
2018-07-02T09:02:07.260Z,101109.79
2018-07-02T09:04:37.840Z,101101.00
2018-07-02T09:07:08.175Z,101108.97
2018-07-02T09:09:38.600Z,101110.36
2018-07-02T09:12:08.877Z,101103.53
2018-07-02T09:14:38.935Z,101099.62
2018-07-02T09:17:09.668Z,101090.84
2018-07-02T09:19:39.850Z,101092.66
2018-07-02T09:22:09.740Z,101095.11
2018-07-02T09:24:39.938Z,101082.64
2018-07-02T09:27:10.068Z,101084.69
2018-07-02T09:29:40.082Z,101080.23
2018-07-02T09:32:10.165Z,101079.36
2018-07-02T09:34:40.031Z,101077.84
2018-07-02T09:37:09.926Z,101080.11
2018-07-02T09:39:39.738Z,101071.06
2018-07-02T09:42:09.588Z,101073.42
2018-07-02T09:44:39.463Z,101076.25
2018-07-02T09:47:09.470Z,101082.23
2018-07-02T09:49:39.292Z,101081.42
2018-07-02T09:52:09.355Z,101082.44
2018-07-02T09:54:39.673Z,101071.44
2018-07-02T09:57:09.979Z,101076.41
2018-07-02T09:59:40.713Z,101081.41
2018-07-02T10:02:10.395Z,101079.36
2018-07-02T10:04:40.247Z,101078.42
2018-07-02T10:07:13.545Z,101075.63
2018-07-02T10:09:44.103Z,101073.99
2018-07-02T10:12:14.255Z,101073.24
2018-07-02T10:14:44.212Z,101066.39
2018-07-02T10:17:14.949Z,101062.65
2018-07-02T10:19:46.045Z,101054.39
2018-07-02T10:22:16.342Z,101058.51
2018-07-02T10:24:46.261Z,101071.92
2018-07-02T10:27:16.450Z,101068.98
2018-07-02T10:29:46.503Z,101069.84
2018-07-02T10:32:17.650Z,101061.19
2018-07-02T10:34:47.628Z,101067.20
2018-07-02T10:37:17.458Z,101060.73
2018-07-02T10:39:47.392Z,101058.59
2018-07-02T10:42:17.304Z,101046.98
2018-07-02T10:44:47.549Z,101051.81
2018-07-02T10:47:17.578Z,101056.23
2018-07-02T10:49:47.675Z,101045.96
2018-07-02T10:52:17.547Z,101043.08
2018-07-02T10:54:51.634Z,101034.98
2018-07-02T10:57:21.461Z,101034.98
2018-07-02T10:59:51.284Z,101035.77
2018-07-02T11:02:22.309Z,101029.78
2018-07-02T11:04:52.284Z,101025.20
2018-07-02T11:07:48.385Z,101028.20
2018-07-02T11:10:18.856Z,101018.08
2018-07-02T11:12:48.961Z,101019.30
2018-07-02T11:15:20.382Z,101022.03
2018-07-02T11:17:50.221Z,101025.47
2018-07-02T11:20:20.092Z,101013.92
2018-07-02T11:22:49.889Z,101015.48
2018-07-02T11:25:19.782Z,101017.88
2018-07-02T11:27:49.565Z,101012.75
2018-07-02T11:30:19.549Z,101012.30
2018-07-02T11:32:49.401Z,101004.20
2018-07-02T11:35:19.216Z,100997.26
2018-07-02T11:37:49.122Z,100988.50
2018-07-02T11:40:18.873Z,100990.87
2018-07-02T11:42:48.660Z,100991.09
2018-07-02T11:45:18.454Z,100985.58
2018-07-02T11:47:48.414Z,100991.83
2018-07-02T11:50:18.577Z,100985.03
2018-07-02T11:52:48.390Z,100993.70
2018-07-02T11:55:18.186Z,100997.27
2018-07-02T11:57:48.033Z,100981.75
2018-07-02T12:00:17.879Z,100980.34
2018-07-02T12:02:47.696Z,100984.98
2018-07-02T12:05:17.504Z,100981.09
2018-07-02T12:07:47.335Z,100978.61
2018-07-02T12:10:17.202Z,100978.86
2018-07-02T12:12:47.079Z,100987.12
2018-07-02T12:15:16.839Z,100975.14
2018-07-02T12:17:46.804Z,100977.20
2018-07-02T12:20:16.509Z,100978.88
2018-07-02T12:22:46.305Z,100981.91
2018-07-02T12:25:16.149Z,100970.71
2018-07-02T12:27:45.968Z,100962.50
2018-07-02T12:30:16.490Z,100970.20
2018-07-02T12:32:46.308Z,100970.96
2018-07-02T12:35:16.231Z,100976.45
2018-07-02T12:37:46.129Z,100973.66
2018-07-02T12:40:15.995Z,100977.25
2018-07-02T12:42:45.799Z,100979.44
2018-07-02T12:45:15.646Z,100974.41
2018-07-02T12:47:45.530Z,100978.56
2018-07-02T12:50:15.379Z,100969.26
2018-07-02T12:52:45.200Z,100973.79
2018-07-02T12:55:15.076Z,100975.85
2018-07-02T12:57:44.694Z,100967.41
2018-07-02T13:00:14.532Z,100959.30
2018-07-02T13:02:44.484Z,100973.52
2018-07-02T13:05:14.286Z,100978.52
2018-07-02T13:07:44.825Z,100977.70
2018-07-02T13:10:14.602Z,100978.36
2018-07-02T13:12:44.465Z,100960.55
2018-07-02T13:15:14.419Z,100957.72
2018-07-02T13:17:44.281Z,100953.72
2018-07-02T13:20:14.139Z,100955.77
2018-07-02T13:22:44.011Z,100956.83
2018-07-02T13:25:13.825Z,100957.19
2018-07-02T13:27:43.695Z,100941.02
2018-07-02T13:30:13.612Z,100947.08
2018-07-02T13:32:43.484Z,100955.34
2018-07-02T13:35:13.412Z,100953.83
2018-07-02T13:37:44.317Z,100945.89
2018-07-02T13:40:14.744Z,100946.33
2018-07-02T13:42:44.517Z,100946.11
2018-07-02T13:45:14.341Z,100943.11
2018-07-02T13:47:44.168Z,100942.22
2018-07-02T13:50:14.018Z,100940.56
2018-07-02T13:52:44.019Z,100941.66
2018-07-02T13:55:13.909Z,100935.34
2018-07-02T13:57:43.674Z,100934.16
2018-07-02T14:00:13.488Z,100938.55
2018-07-02T14:02:43.431Z,100933.98
2018-07-02T14:05:13.333Z,100929.36
2018-07-02T14:07:43.160Z,100925.02
2018-07-02T14:10:12.945Z,100924.13
2018-07-02T14:12:42.800Z,100919.75
2018-07-02T14:15:12.659Z,100903.02
2018-07-02T14:17:42.633Z,100910.45
2018-07-02T14:20:12.548Z,100905.05
2018-07-02T14:22:42.482Z,100904.05
2018-07-02T14:25:12.260Z,100918.42
2018-07-02T14:27:42.051Z,100906.72
2018-07-02T14:30:11.843Z,100906.66
2018-07-02T14:32:41.662Z,100903.50
2018-07-02T14:35:11.524Z,100912.42
2018-07-02T14:37:41.306Z,100897.66
2018-07-02T14:40:11.179Z,100897.21
2018-07-02T14:42:41.201Z,100894.51
2018-07-02T14:45:11.070Z,100894.80
2018-07-02T14:47:41.471Z,100899.88
2018-07-02T14:50:11.445Z,100896.74
2018-07-02T14:52:41.284Z,100890.95
2018-07-02T14:55:11.134Z,100882.84
2018-07-02T14:57:41.081Z,100885.28
2018-07-02T15:00:10.976Z,100872.73
2018-07-02T15:02:40.898Z,100868.88
2018-07-02T15:05:10.721Z,100861.19
2018-07-02T15:07:40.493Z,100863.83
2018-07-02T15:10:10.437Z,100868.45
2018-07-02T15:12:40.325Z,100870.56
2018-07-02T15:15:10.072Z,100868.23
2018-07-02T15:17:39.939Z,100864.41
2018-07-02T15:20:10.359Z,100869.73
2018-07-02T15:22:40.100Z,100859.84
2018-07-02T15:25:10.026Z,100863.86
2018-07-02T15:27:39.793Z,100869.06
2018-07-02T15:30:09.585Z,100864.67
2018-07-02T15:32:39.369Z,100869.73
2018-07-02T15:35:09.338Z,100873.06
2018-07-02T15:37:39.298Z,100862.36
2018-07-02T15:40:09.223Z,100870.64
2018-07-02T15:42:39.160Z,100868.46
2018-07-02T15:45:09.032Z,100873.86
2018-07-02T15:47:38.885Z,100870.25
2018-07-02T15:50:08.693Z,100874.22
2018-07-02T15:52:38.516Z,100869.75
2018-07-02T15:55:08.372Z,100870.09
2018-07-02T15:57:38.227Z,100869.03
2018-07-02T16:00:08.559Z,100861.20
2018-07-02T16:02:38.226Z,100864.95
2018-07-02T16:05:08.132Z,100854.01
2018-07-02T16:07:37.667Z,100855.50
2018-07-02T16:10:07.667Z,100858.59
2018-07-02T16:12:37.608Z,100858.59
2018-07-02T16:15:07.456Z,100856.86
2018-07-02T16:17:37.313Z,100847.33
2018-07-02T16:20:07.135Z,100852.16
2018-07-02T16:22:37.046Z,100845.12
2018-07-02T16:25:07.091Z,100850.17
2018-07-02T16:27:38.119Z,100840.66
2018-07-02T16:30:09.937Z,100841.34
2018-07-02T16:32:39.760Z,100848.33
2018-07-02T16:35:09.570Z,100846.79
2018-07-02T16:37:39.448Z,100847.23
2018-07-02T16:40:09.263Z,100842.00
2018-07-02T16:42:39.204Z,100850.56
2018-07-02T16:45:10.973Z,100841.44
2018-07-02T16:47:41.480Z,100841.80
2018-07-02T16:50:11.647Z,100849.81
2018-07-02T16:52:42.025Z,100850.66
2018-07-02T16:55:11.489Z,100848.97
2018-07-02T16:57:42.224Z,100844.85
2018-07-02T17:00:13.053Z,100843.30
2018-07-02T17:02:42.875Z,100836.34
2018-07-02T17:05:12.730Z,100835.64
2018-07-02T17:07:42.227Z,100834.41
2018-07-02T17:10:12.385Z,100839.72
2018-07-02T17:12:42.286Z,100835.52
2018-07-02T17:15:12.348Z,100840.67
2018-07-02T17:17:42.388Z,100845.84
2018-07-02T17:20:12.640Z,100850.76
2018-07-02T17:22:42.778Z,100845.07
2018-07-02T17:25:12.624Z,100841.56
2018-07-02T17:27:42.455Z,100844.33
2018-07-02T17:30:12.821Z,100848.48
2018-07-02T17:32:42.754Z,100854.54
2018-07-02T17:35:28.848Z,100844.65
2018-07-02T17:38:00.335Z,100851.63
2018-07-02T17:40:30.103Z,100851.25
2018-07-02T17:42:59.919Z,100844.35
2018-07-02T17:45:29.743Z,100850.48
2018-07-02T17:48:01.756Z,100852.56
2018-07-02T17:50:32.087Z,100853.75
2018-07-02T17:53:01.898Z,100850.69
2018-07-02T17:55:33.010Z,100851.41
2018-07-02T17:58:02.760Z,100852.14
2018-07-02T18:00:32.594Z,100852.17
2018-07-02T18:03:02.495Z,100847.61
2018-07-02T18:05:32.383Z,100858.08
2018-07-02T18:08:02.255Z,100849.35
2018-07-02T18:10:32.276Z,100850.52
2018-07-02T18:13:02.280Z,100850.83
2018-07-02T18:15:51.916Z,100854.97
2018-07-02T18:18:21.971Z,100851.00
2018-07-02T18:20:52.038Z,100854.05
2018-07-02T18:23:21.560Z,100854.27
2018-07-02T18:25:51.364Z,100849.09
2018-07-02T18:28:22.156Z,100856.17
2018-07-02T18:30:52.739Z,100859.04
2018-07-02T18:33:23.093Z,100855.56
2018-07-02T18:35:53.276Z,100850.17
2018-07-02T18:38:24.001Z,100855.69
2018-07-02T18:40:54.415Z,100855.38
2018-07-02T18:43:27.207Z,100853.72
2018-07-02T18:45:57.604Z,100852.49
2018-07-02T18:48:28.612Z,100855.64
2018-07-02T18:50:59.014Z,100854.45
2018-07-02T18:53:28.909Z,100855.77
2018-07-02T18:56:00.604Z,100853.86
2018-07-02T18:58:31.332Z,100845.96
2018-07-02T19:01:01.323Z,100844.31
2018-07-02T19:03:31.211Z,100843.75
2018-07-02T19:06:01.096Z,100842.47
2018-07-02T19:08:31.084Z,100843.95
2018-07-02T19:11:00.914Z,100843.81
2018-07-02T19:13:32.801Z,100846.31
2018-07-02T19:16:03.147Z,100848.02
2018-07-02T19:18:33.741Z,100851.58
2018-07-02T19:21:04.620Z,100854.33
2018-07-02T19:23:36.093Z,100855.32
2018-07-02T19:26:06.549Z,100855.03
2018-07-02T19:28:37.598Z,100856.69
2018-07-02T19:31:07.691Z,100857.96
2018-07-02T19:33:38.537Z,100859.05
2018-07-02T19:36:09.985Z,100854.48
2018-07-02T19:38:40.268Z,100855.18
2018-07-02T19:41:10.736Z,100859.12
2018-07-02T19:43:41.420Z,100859.38
2018-07-02T19:46:11.515Z,100863.69
2018-07-02T19:48:41.611Z,100860.72
2018-07-02T19:51:12.875Z,100856.69
2018-07-02T19:53:43.196Z,100864.78
2018-07-02T19:56:15.128Z,100870.58
2018-07-02T19:58:45.377Z,100860.85
2018-07-02T20:01:15.298Z,100868.45
2018-07-02T20:03:45.711Z,100864.94
2018-07-02T20:06:15.633Z,100877.88
2018-07-02T20:08:45.922Z,100874.53
2018-07-02T20:11:15.783Z,100869.47
2018-07-02T20:13:45.735Z,100868.83
2018-07-02T20:16:15.651Z,100866.80
2018-07-02T20:18:45.477Z,100875.87
2018-07-02T20:21:14.864Z,100873.05
2018-07-02T20:23:49.553Z,100870.59
2018-07-02T20:26:19.463Z,100879.14
2018-07-02T20:28:49.465Z,100880.27
2018-07-02T20:31:19.319Z,100875.73
2018-07-02T20:36:42.011Z,100874.85
2018-07-02T20:39:12.580Z,100876.28
2018-07-02T20:41:43.118Z,100874.93
2018-07-02T20:44:12.937Z,100874.89
2018-07-02T20:46:43.166Z,100876.03
2018-07-02T20:49:13.049Z,100873.78
2018-07-02T20:51:44.145Z,100876.33
2018-07-02T20:54:13.923Z,100877.56
2018-07-02T20:56:43.817Z,100880.28
2018-07-02T20:59:14.954Z,100882.84
2018-07-02T21:01:44.774Z,100889.61
2018-07-02T21:04:15.390Z,100891.48
2018-07-02T21:06:46.050Z,100887.02
2018-07-02T21:09:25.627Z,100884.23
2018-07-02T21:11:55.495Z,100892.52
2018-07-02T21:14:25.487Z,100889.73
2018-07-02T21:16:56.243Z,100892.31
2018-07-02T21:19:26.274Z,100885.92
2018-07-02T21:21:56.151Z,100889.30
2018-07-02T21:24:26.023Z,100848.29
2018-07-02T21:26:55.790Z,100888.23
2018-07-02T21:29:25.757Z,100886.91
2018-07-02T21:31:57.287Z,100892.33
2018-07-02T21:34:28.135Z,100887.00
2018-07-02T21:37:01.389Z,100884.31
2018-07-02T21:39:32.827Z,100880.00
2018-07-02T21:42:04.262Z,100882.42
2018-07-02T21:44:34.196Z,100881.34
2018-07-02T21:47:05.053Z,100880.31
2018-07-02T21:49:35.826Z,100884.41
2018-07-02T21:52:06.579Z,100888.91
2018-07-02T21:54:37.282Z,100892.14
2018-07-02T21:57:09.283Z,100891.86
2018-07-02T21:59:39.174Z,100893.02
2018-07-02T22:02:09.740Z,100890.56
2018-07-02T22:04:39.704Z,100895.27
2018-07-02T22:07:10.069Z,100891.64
2018-07-02T22:09:40.114Z,100887.36
2018-07-02T22:12:11.317Z,100890.30
2018-07-02T22:14:41.301Z,100886.52
2018-07-02T22:17:13.614Z,100888.46
2018-07-02T22:19:44.612Z,100886.87
2018-07-02T22:22:15.212Z,100883.45
2018-07-02T22:24:45.822Z,100883.04
2018-07-02T22:27:16.118Z,100880.98
2018-07-02T22:29:46.170Z,100886.08
2018-07-02T22:32:15.948Z,100882.78
2018-07-02T22:34:46.490Z,100889.01
2018-07-02T22:37:16.294Z,100889.16
2018-07-02T22:39:46.208Z,100892.42
2018-07-02T22:42:16.194Z,100892.50
2018-07-02T22:44:46.042Z,100892.19
2018-07-02T22:47:15.785Z,100886.11
2018-07-02T22:49:45.612Z,100889.82
2018-07-02T22:52:16.286Z,100888.67
2018-07-02T22:54:46.148Z,100890.98
2018-07-02T22:57:15.937Z,100886.19
2018-07-02T22:59:45.825Z,100889.62
2018-07-02T23:02:15.734Z,100886.95
2018-07-02T23:04:45.520Z,100888.29
2018-07-02T23:07:15.308Z,100891.61
2018-07-02T23:09:45.145Z,100889.66
2018-07-02T23:12:14.956Z,100892.03
2018-07-02T23:14:44.702Z,100898.56
2018-07-02T23:17:14.654Z,100904.42
2018-07-02T23:19:44.484Z,100895.84
2018-07-02T23:22:14.339Z,100891.39
2018-07-02T23:24:44.306Z,100895.38
2018-07-02T23:27:14.155Z,100898.66
2018-07-02T23:29:43.917Z,100897.08
2018-07-02T23:32:13.698Z,100898.44
2018-07-02T23:34:43.624Z,100894.62
2018-07-02T23:37:13.541Z,100893.55
2018-07-02T23:39:43.389Z,100892.47
2018-07-02T23:42:13.131Z,100893.11
2018-07-02T23:44:42.969Z,100897.67
2018-07-02T23:47:12.781Z,100904.64
2018-07-02T23:49:42.568Z,100901.34
2018-07-02T23:52:13.323Z,100894.52
2018-07-02T23:54:43.069Z,100899.34
2018-07-02T23:57:13.508Z,100902.80
2018-07-02T23:59:43.246Z,100902.20
